METAR Data
IDs: Format: Raw Decoded Include TAF

Data at: 0815 UTC 19 Aug 2022

KBFI 190753Z 00000KT 10SM BKN150 24/17 A2986 RMK AO2 SLP111 T02440172 403170211
KBFI 190653Z 00000KT 10SM BKN150 24/17 A2985 RMK AO2 SLP107 T02440167
KBFI 190553Z 00000KT 10SM BKN150 27/18 A2985 RMK AO2 SLP109 T02670178 10311 20256 58001
KBFI 190453Z 18003KT 10SM BKN170 26/17 A2987 RMK AO2 SLP114 T02610172
KBFI 190353Z VRB04KT 10SM BKN170 27/17 A2985 RMK AO2 SLP108 T02670172
KBFI 190253Z 32004KT 10SM BKN170 28/17 A2986 RMK AO2 SLP110 T02780167 58007
KBFI 190206Z 00000KT 10SM BKN170 29/17 A2986 RMK AO2 T02940172
KBFI 190153Z COR 00000KT 10SM BKN170 29/17 A2987 RMK AO2 SLP115 T02890167
KBFI 190053Z 29003KT 10SM CLR 30/17 A2987 RMK AO2 SLP115 T03000167
KBFI 182353Z 10005KT 10SM BKN170 31/19 A2988 RMK AO2 SLP117 T03110189 10317 20250 58006
KBFI 182253Z 12004KT 10SM BKN170 30/18 A2988 RMK AO2 SLP119 T03000178
KBFI 182153Z 21003KT 10SM CLR 29/17 A2990 RMK AO2 SLP126 T02890172
KBFI 182053Z AUTO VRB03KT 10SM CLR 28/16 A2990 RMK AO2 SLP123 T02830161 58006
KBFI 181953Z AUTO 31004KT 10SM CLR 28/16 A2991 RMK AO2 SLP128 T02780161
KBFI 181853Z AUTO 28003KT 10SM CLR 28/16 A2991 RMK AO2 SLP128 T02780161
KBFI 181753Z AUTO VRB05KT 10SM CLR 26/15 A2991 RMK AO2 SLP130 T02560150 10256 20211 57006
KBFI 181653Z AUTO 33004KT 10SM CLR 24/15 A2992 RMK AO2 SLP132 T02390150
KBFI 181553Z 30003KT 10SM CLR 23/15 A2992 RMK AO2 SLP132 T02280150
KBFI 181453Z 30004KT 10SM BKN150 22/14 A2993 RMK AO2 SLP135 T02170144 53009
KBFI 181353Z 00000KT 10SM CLR 22/14 A2992 RMK AO2 SLP132 T02170144
KBFI 181253Z 00000KT 10SM OVC150 21/14 A2990 RMK AO2 SLP125 T02110144
KBFI 181153Z 32003KT 10SM CLR 23/15 A2990 RMK AO2 SLP126 T02280150 10256 20217 58001
KBFI 181053Z 20004KT 10SM BKN200 22/14 A2991 RMK AO2 SLP129 T02170144
KBFI 180953Z 00000KT 10SM BKN200 22/14 A2990 RMK AO2 SLP126 T02220139
KBFI 180853Z 00000KT 10SM CLR 22/14 A2991 RMK AO2 SLP127 T02220144 52002